createdAt,value
2017-04-20T03:12:04.440Z,82.54
2017-04-20T03:13:05.807Z,82.45
2017-04-20T03:14:07.226Z,82.54
2017-04-20T03:15:08.649Z,81.79
2017-04-20T03:16:10.064Z,81.83
2017-04-20T03:17:11.474Z,80.69
2017-04-20T03:18:12.900Z,81.70
2017-04-20T03:19:14.325Z,82.64
2017-04-20T03:20:15.746Z,83.02
2017-04-20T03:21:17.158Z,83.49
2017-04-20T03:22:18.574Z,83.78
2017-04-20T03:23:19.995Z,83.30
2017-04-20T03:24:21.416Z,83.02
2017-04-20T03:25:22.840Z,82.64
2017-04-20T03:26:24.263Z,82.92
2017-04-20T03:27:25.681Z,82.73
2017-04-20T03:28:27.096Z,82.54
2017-04-20T03:29:28.463Z,83.02
2017-04-20T03:30:29.882Z,83.40
2017-04-20T03:31:31.299Z,82.64
2017-04-20T03:32:32.712Z,82.07
2017-04-20T03:33:34.131Z,82.64
2017-04-20T03:34:35.546Z,81.88
2017-04-20T03:35:36.959Z,80.69
2017-04-20T03:36:38.375Z,80.04
2017-04-20T03:37:39.834Z,80.32
2017-04-20T03:38:41.258Z,81.41
2017-04-20T03:39:42.681Z,82.45
2017-04-20T03:40:44.097Z,83.21
2017-04-20T03:41:45.513Z,84.06
2017-04-20T03:42:46.931Z,83.21
2017-04-20T03:43:48.351Z,81.93
2017-04-20T03:44:49.770Z,80.88
2017-04-20T03:45:51.177Z,80.04
2017-04-20T03:46:52.595Z,80.32
2017-04-20T03:47:54.009Z,80.32
2017-04-20T03:48:55.433Z,81.13
2017-04-20T03:49:56.857Z,81.79
2017-04-20T03:50:58.270Z,82.45
2017-04-20T03:51:59.685Z,83.11
2017-04-20T03:53:01.101Z,82.92
2017-04-20T03:54:02.512Z,82.17
2017-04-20T03:55:03.925Z,81.79
2017-04-20T03:56:05.350Z,81.36
2017-04-20T03:57:06.769Z,80.32
2017-04-20T03:58:08.191Z,80.60
2017-04-20T03:59:09.610Z,80.75
2017-04-20T04:00:11.023Z,81.17
2017-04-20T04:01:12.444Z,81.98
2017-04-20T04:02:13.862Z,82.26
2017-04-20T04:03:15.279Z,82.54
2017-04-20T04:04:16.701Z,82.83
2017-04-20T04:05:18.120Z,81.98
2017-04-20T04:06:19.533Z,81.13
2017-04-20T04:07:20.948Z,80.27
2017-04-20T04:08:22.361Z,79.85
2017-04-20T04:09:23.775Z,79.43
2017-04-20T04:10:25.190Z,79.80
2017-04-20T04:11:26.607Z,80.08
2017-04-20T04:12:28.020Z,80.51
2017-04-20T04:13:29.455Z,80.94
2017-04-20T04:14:30.871Z,81.32
2017-04-20T04:15:32.280Z,82.64
2017-04-20T04:16:33.705Z,83.21
2017-04-20T04:17:35.125Z,82.92
2017-04-20T04:18:36.541Z,83.30
2017-04-20T04:19:38.005Z,83.59
2017-04-20T04:20:39.422Z,84.81
2017-04-20T04:21:40.844Z,84.72
2017-04-20T04:22:42.266Z,84.06
2017-04-20T04:23:43.684Z,83.87
2017-04-20T04:24:45.102Z,83.97
2017-04-20T04:25:46.524Z,84.16
2017-04-20T04:26:47.947Z,83.02
2017-04-20T04:27:49.367Z,82.54
2017-04-20T04:28:50.782Z,80.94
2017-04-20T04:29:52.202Z,80.84
2017-04-20T04:30:53.622Z,80.46
2017-04-20T04:31:55.038Z,81.22
2017-04-20T04:32:56.459Z,81.88
2017-04-20T04:33:57.877Z,83.40
2017-04-20T04:34:59.294Z,83.59
2017-04-20T04:36:00.716Z,83.73
2017-04-20T04:37:02.142Z,85.24
2017-04-20T04:38:03.567Z,86.10
2017-04-20T04:39:04.987Z,86.00
2017-04-20T04:40:06.410Z,85.62
2017-04-20T04:41:07.827Z,85.24
2017-04-20T04:42:09.264Z,84.91
2017-04-20T04:43:10.665Z,84.49
2017-04-20T04:44:12.083Z,85.53
2017-04-20T04:45:13.503Z,85.57
2017-04-20T04:46:14.916Z,84.91
2017-04-20T04:47:16.337Z,83.97
2017-04-20T04:48:17.762Z,83.02
2017-04-20T04:49:19.176Z,82.83
2017-04-20T04:50:20.605Z,82.73
2017-04-20T04:51:22.025Z,83.02
2017-04-20T04:52:23.451Z,82.83
2017-04-20T04:53:24.859Z,82.54
2017-04-20T04:54:26.277Z,83.21
2017-04-20T04:55:27.705Z,83.78
2017-04-20T04:56:29.127Z,83.21
2017-04-20T04:57:30.549Z,83.02
2017-04-20T04:58:32.012Z,82.83
2017-04-20T04:59:33.446Z,83.78
2017-04-20T05:00:34.866Z,84.39
2017-04-20T05:01:36.289Z,85.24
2017-04-20T05:02:37.770Z,85.28
2017-04-20T05:03:39.195Z,84.63
2017-04-20T05:04:40.611Z,83.02
2017-04-20T05:05:42.099Z,82.45
2017-04-20T05:06:43.510Z,83.11
2017-04-20T05:07:44.933Z,82.73
2017-04-20T05:08:46.364Z,83.21
2017-04-20T05:09:47.866Z,83.87
2017-04-20T05:10:49.291Z,84.16
2017-04-20T05:11:50.705Z,84.06
2017-04-20T05:12:52.129Z,83.78
2017-04-20T05:13:53.546Z,84.25
2017-04-20T05:14:54.967Z,84.06
2017-04-20T05:15:56.392Z,84.06
2017-04-20T05:16:57.808Z,84.91
2017-04-20T05:17:59.223Z,84.34
2017-04-20T05:19:00.651Z,84.44
2017-04-20T05:20:02.077Z,84.34
2017-04-20T05:21:03.496Z,83.30
2017-04-20T05:22:04.916Z,83.59
2017-04-20T05:23:06.340Z,83.78
2017-04-20T05:24:07.763Z,83.49
2017-04-20T05:25:09.183Z,84.16
2017-04-20T05:26:10.601Z,83.40
2017-04-20T05:27:12.026Z,83.87
2017-04-20T05:28:13.446Z,84.25
2017-04-20T05:29:14.860Z,84.16
2017-04-20T05:30:16.281Z,84.06
2017-04-20T05:31:17.699Z,83.59
2017-04-20T05:32:19.119Z,83.78
2017-04-20T05:33:20.542Z,84.06
2017-04-20T05:34:21.959Z,83.59
2017-04-20T05:35:23.392Z,83.78
2017-04-20T05:36:24.817Z,84.06
2017-04-20T05:37:26.233Z,84.16
2017-04-20T05:38:27.659Z,84.06
2017-04-20T05:39:29.079Z,83.59
2017-04-20T05:40:30.506Z,83.49
2017-04-20T05:41:31.934Z,83.11
2017-04-20T05:42:33.349Z,82.83
2017-04-20T05:43:34.773Z,83.30
2017-04-20T05:44:36.191Z,84.06
2017-04-20T05:45:37.611Z,83.87
2017-04-20T05:46:39.028Z,84.16
2017-04-20T05:47:40.448Z,84.16
2017-04-20T05:48:41.876Z,83.63
2017-04-20T05:49:43.303Z,83.25
2017-04-20T05:50:44.723Z,82.78
2017-04-20T05:51:46.152Z,82.59
2017-04-20T05:52:47.569Z,83.06
2017-04-20T05:53:48.992Z,83.06
2017-04-20T05:54:50.405Z,82.12
2017-04-20T05:55:51.832Z,82.12
2017-04-20T05:56:53.255Z,81.74
2017-04-20T05:57:54.678Z,81.83
2017-04-20T05:58:56.103Z,82.68
2017-04-20T05:59:57.521Z,82.78
2017-04-20T06:00:58.938Z,82.40
2017-04-20T06:02:00.351Z,83.53
2017-04-20T06:03:01.775Z,83.34
2017-04-20T06:04:03.196Z,82.59
2017-04-20T06:05:04.615Z,81.49
2017-04-20T06:06:06.034Z,81.12
2017-04-20T06:07:07.459Z,81.30
2017-04-20T06:08:08.878Z,81.12
2017-04-20T06:09:10.296Z,80.83
2017-04-20T06:10:11.713Z,81.21
2017-04-20T06:11:13.133Z,81.30
2017-04-20T06:12:14.561Z,81.02
2017-04-20T06:13:15.986Z,81.21
2017-04-20T06:14:17.407Z,80.74
2017-04-20T06:15:18.828Z,80.83
2017-04-20T06:16:20.261Z,80.45
2017-04-20T06:17:21.682Z,80.64
2017-04-20T06:18:23.100Z,80.45
2017-04-20T06:19:24.518Z,79.60
2017-04-20T06:20:25.936Z,79.98
2017-04-20T06:21:27.353Z,80.36
2017-04-20T06:22:28.774Z,80.83
2017-04-20T06:23:30.195Z,80.45
2017-04-20T06:24:31.614Z,81.02
2017-04-20T06:25:33.039Z,80.64
2017-04-20T06:26:34.470Z,80.17
2017-04-20T06:27:35.888Z,79.69
2017-04-20T06:28:37.306Z,78.75
2017-04-20T06:29:38.724Z,79.50
2017-04-20T06:30:40.148Z,78.69
2017-04-20T06:31:41.576Z,78.50
2017-04-20T06:32:43.003Z,78.59
2017-04-20T06:33:44.426Z,77.75
2017-04-20T06:34:45.841Z,77.75
2017-04-20T06:35:47.265Z,77.65
2017-04-20T06:36:48.678Z,77.27
2017-04-20T06:37:50.105Z,77.75
2017-04-20T06:38:51.525Z,77.27
2017-04-20T06:39:52.951Z,77.46
2017-04-20T06:40:54.375Z,77.46
2017-04-20T06:41:55.852Z,76.36
2017-04-20T06:42:57.271Z,74.95
2017-04-20T06:43:58.694Z,74.37
2017-04-20T06:45:00.215Z,74.28
2017-04-20T06:46:01.659Z,75.04
2017-04-20T06:47:03.077Z,74.95
2017-04-20T06:48:04.510Z,74.95
2017-04-20T06:49:05.979Z,74.79
2017-04-20T06:50:07.401Z,74.13
2017-04-20T06:51:08.826Z,73.75
2017-04-20T06:52:10.256Z,73.37
2017-04-20T06:53:11.777Z,73.08
2017-04-20T06:54:13.206Z,72.80
2017-04-20T06:55:14.641Z,72.52
2017-04-20T06:56:16.063Z,71.57
2017-04-20T06:57:17.498Z,71.28
2017-04-20T06:58:18.918Z,72.04
2017-04-20T06:59:20.303Z,71.38
2017-04-20T07:00:21.732Z,72.42
2017-04-20T07:01:23.152Z,71.98
2017-04-20T07:02:24.575Z,71.76
2017-04-20T07:03:26.007Z,71.38
2017-04-20T07:04:27.432Z,71.76
2017-04-20T07:05:28.856Z,70.43
2017-04-20T07:06:30.293Z,71.22
2017-04-20T07:07:31.715Z,71.70
2017-04-20T07:08:33.139Z,70.65
2017-04-20T07:09:34.565Z,70.47
2017-04-20T07:10:35.984Z,70.65
2017-04-20T07:11:37.406Z,70.56
2017-04-20T07:12:38.829Z,69.42
2017-04-20T07:13:40.253Z,68.60
2017-04-20T07:14:41.677Z,67.14
2017-04-20T07:15:43.103Z,67.27
2017-04-20T07:16:44.525Z,68.60
2017-04-20T07:17:45.954Z,68.04
2017-04-20T07:18:47.389Z,67.37
2017-04-20T07:19:48.815Z,65.75
2017-04-20T07:20:50.243Z,67.08
2017-04-20T07:21:51.668Z,65.66
2017-04-20T07:22:53.093Z,65.85
2017-04-20T07:23:54.521Z,65.85
2017-04-20T07:24:55.957Z,66.89
2017-04-20T07:25:57.376Z,65.47
2017-04-20T07:26:58.804Z,65.00
2017-04-20T07:28:00.232Z,65.66
2017-04-20T07:29:01.665Z,65.95
2017-04-20T07:30:03.087Z,65.79
2017-04-20T07:31:04.517Z,64.24
2017-04-20T07:32:05.938Z,62.85
2017-04-20T07:33:07.366Z,63.98
2017-04-20T07:34:08.793Z,63.79
2017-04-20T07:35:10.222Z,63.23
2017-04-20T07:36:11.645Z,63.04
2017-04-20T07:37:13.066Z,63.60
2017-04-20T07:38:14.488Z,64.94
2017-04-20T07:39:15.919Z,63.32
2017-04-20T07:40:17.347Z,61.99
2017-04-20T07:41:18.773Z,62.08
2017-04-20T07:42:20.195Z,62.50
2017-04-20T07:43:21.617Z,62.31
2017-04-20T07:44:23.045Z,60.69
2017-04-20T07:45:24.479Z,60.03
2017-04-20T07:46:25.916Z,59.84
2017-04-20T07:47:27.348Z,58.41
2017-04-20T07:48:28.774Z,58.22
2017-04-20T07:49:30.204Z,59.27
2017-04-20T07:50:31.641Z,59.81
2017-04-20T07:51:33.074Z,59.65
2017-04-20T07:52:34.501Z,61.07
2017-04-20T07:53:35.928Z,59.93
2017-04-20T07:54:37.363Z,61.17
2017-04-20T07:55:38.795Z,60.22
2017-04-20T07:56:40.231Z,59.36
2017-04-20T07:57:41.668Z,58.13
2017-04-20T07:58:43.084Z,57.37
2017-04-20T07:59:44.513Z,57.68
2017-04-20T08:00:45.932Z,57.50
2017-04-20T08:01:47.318Z,56.45
2017-04-20T08:02:48.746Z,54.99
2017-04-20T08:03:50.175Z,53.95
2017-04-20T08:04:51.600Z,53.00
2017-04-20T08:05:53.032Z,55.66
2017-04-20T08:06:54.458Z,54.93
2017-04-20T08:07:55.889Z,54.45
2017-04-20T08:08:57.310Z,56.35
2017-04-20T08:09:58.733Z,53.78
2017-04-20T08:11:00.163Z,54.93
2017-04-20T08:12:01.596Z,53.50
2017-04-20T08:13:03.022Z,53.50
2017-04-20T08:14:04.456Z,52.26
2017-04-20T08:15:05.885Z,52.58
2017-04-20T08:16:07.315Z,52.01
2017-04-20T08:17:08.744Z,53.12
2017-04-20T08:18:10.177Z,52.45
2017-04-20T08:19:11.602Z,52.36
2017-04-20T08:20:13.026Z,49.51
2017-04-20T08:21:14.459Z,48.58
2017-04-20T08:22:15.883Z,48.87
2017-04-20T08:23:17.266Z,50.87
2017-04-20T08:24:18.698Z,49.63
2017-04-20T08:25:20.126Z,48.77
2017-04-20T08:26:21.550Z,49.63
2017-04-20T08:27:22.980Z,48.46
2017-04-20T08:28:24.408Z,46.47
2017-04-20T08:29:25.833Z,44.47
2017-04-20T08:30:27.279Z,44.28
2017-04-20T08:31:28.712Z,44.68
2017-04-20T08:32:30.140Z,44.76
2017-04-20T08:33:31.563Z,43.71
2017-04-20T08:34:33.002Z,41.62
2017-04-20T08:35:34.642Z,39.15
2017-04-20T08:36:36.071Z,39.65
2017-04-20T08:37:37.495Z,39.65
2017-04-20T08:38:38.919Z,40.88
2017-04-20T08:39:40.351Z,40.31
2017-04-20T08:40:41.783Z,43.05
2017-04-20T08:41:43.202Z,44.57
2017-04-20T08:42:44.638Z,42.50
2017-04-20T08:43:46.067Z,44.59
2017-04-20T08:44:47.497Z,45.45
2017-04-20T08:45:48.936Z,41.46
2017-04-20T08:46:50.364Z,40.69
2017-04-20T08:47:51.793Z,43.83
2017-04-20T08:48:53.224Z,45.26
2017-04-20T08:49:54.659Z,46.33
2017-04-20T08:50:56.081Z,45.73
2017-04-20T08:51:57.510Z,44.71
2017-04-20T08:52:58.944Z,43.47
2017-04-20T08:54:00.380Z,43.76
2017-04-20T08:55:01.809Z,44.52
2017-04-20T08:56:03.234Z,43.66
2017-04-20T08:57:04.663Z,43.38
2017-04-20T08:58:06.095Z,43.47
2017-04-20T08:59:07.521Z,44.52
2017-04-20T09:00:08.951Z,42.80
2017-04-20T09:01:10.384Z,42.43
2017-04-20T09:02:11.810Z,42.43
2017-04-20T09:03:13.246Z,45.09
2017-04-20T09:04:14.625Z,42.90
2017-04-20T09:05:16.061Z,41.19
2017-04-20T09:06:17.488Z,42.80
2017-04-20T09:07:18.915Z,41.28
2017-04-20T09:08:20.342Z,42.33
2017-04-20T09:09:21.802Z,41.00
2017-04-20T09:10:23.278Z,42.52
2017-04-20T09:11:24.703Z,42.71
2017-04-20T09:12:26.223Z,42.90
2017-04-20T09:13:27.646Z,45.00
2017-04-20T09:14:29.084Z,41.85
2017-04-20T09:15:30.513Z,43.11
2017-04-20T09:16:31.959Z,42.92
2017-04-20T09:17:33.382Z,39.31
2017-04-20T09:18:34.811Z,39.78
2017-04-20T09:19:36.238Z,40.26
2017-04-20T09:20:37.675Z,41.47
2017-04-20T09:21:39.101Z,40.35
2017-04-20T09:22:40.530Z,40.06
2017-04-20T09:23:42.068Z,41.21
2017-04-20T09:24:43.500Z,40.43
2017-04-20T09:25:44.930Z,38.81
2017-04-20T09:26:46.351Z,39.40
2017-04-20T09:27:47.780Z,39.78
2017-04-20T09:28:49.217Z,40.92
2017-04-20T09:29:50.653Z,39.87
2017-04-20T09:30:52.081Z,40.92
2017-04-20T09:31:53.501Z,38.90
2017-04-20T09:32:54.934Z,38.81
2017-04-20T09:33:56.362Z,40.26
2017-04-20T09:34:57.790Z,39.97
2017-04-20T09:35:59.219Z,40.23
2017-04-20T09:37:00.657Z,39.69
2017-04-20T09:38:02.081Z,39.40
2017-04-20T09:39:03.512Z,38.71
2017-04-20T09:40:04.936Z,38.07
2017-04-20T09:41:06.368Z,37.59
2017-04-20T09:42:07.800Z,36.35
2017-04-20T09:43:09.233Z,37.78
2017-04-20T09:44:10.663Z,37.69
2017-04-20T09:45:12.096Z,38.26
2017-04-20T09:46:13.522Z,41.61
2017-04-20T09:47:14.958Z,39.14
2017-04-20T09:48:16.388Z,37.52
2017-04-20T09:49:17.819Z,37.30
2017-04-20T09:50:19.239Z,38.47
2017-04-20T09:51:20.668Z,38.09
2017-04-20T09:52:22.099Z,38.09
2017-04-20T09:53:23.527Z,37.52
2017-04-20T09:54:24.960Z,37.23
2017-04-20T09:55:26.391Z,36.18
2017-04-20T09:56:27.815Z,35.97
2017-04-20T09:57:29.255Z,36.37
2017-04-20T09:58:30.679Z,37.13
2017-04-20T09:59:32.112Z,37.61
2017-04-20T10:00:33.547Z,37.12
2017-04-20T10:01:34.975Z,35.78
2017-04-20T10:02:36.424Z,35.78
2017-04-20T10:03:37.849Z,36.57
2017-04-20T10:04:39.288Z,37.42
2017-04-20T10:05:40.724Z,38.95
2017-04-20T10:06:42.157Z,38.66
2017-04-20T10:07:43.587Z,38.95
2017-04-20T10:08:45.014Z,37.71
2017-04-20T10:09:46.447Z,38.09
2017-04-20T10:10:47.879Z,38.37
2017-04-20T10:11:49.308Z,38.18
2017-04-20T10:12:50.734Z,37.80
2017-04-20T10:13:52.171Z,36.37
2017-04-20T10:14:53.603Z,36.28
2017-04-20T10:15:55.033Z,37.52
2017-04-20T10:16:56.466Z,36.66
2017-04-20T10:17:57.898Z,35.23
2017-04-20T10:18:59.337Z,34.85
2017-04-20T10:20:00.767Z,36.87
2017-04-20T10:21:02.193Z,38.79
2017-04-20T10:22:03.626Z,36.12
2017-04-20T10:23:05.058Z,33.25
2017-04-20T10:24:06.498Z,35.91
2017-04-20T10:25:07.925Z,36.87
2017-04-20T10:26:09.355Z,37.25
2017-04-20T10:27:11.959Z,38.58
2017-04-20T10:28:13.388Z,35.44
2017-04-20T10:29:14.820Z,34.39
2017-04-20T10:30:16.256Z,33.53
2017-04-20T10:31:17.685Z,35.06
2017-04-20T10:32:19.112Z,36.87
2017-04-20T10:33:20.552Z,35.91
2017-04-20T10:34:21.986Z,35.27
2017-04-20T10:35:23.417Z,32.68
2017-04-20T10:36:24.854Z,34.41
2017-04-20T10:37:26.301Z,34.20
2017-04-20T10:38:27.745Z,33.15
2017-04-20T10:39:29.177Z,33.55
2017-04-20T10:40:30.607Z,34.81
2017-04-20T10:41:32.033Z,36.41
2017-04-20T10:42:33.462Z,33.84
2017-04-20T10:43:34.900Z,34.50
2017-04-20T10:44:36.337Z,34.69
2017-04-20T10:45:37.766Z,34.39
2017-04-20T10:46:39.204Z,35.08
2017-04-20T10:47:40.638Z,36.03
2017-04-20T10:48:42.074Z,33.36
2017-04-20T10:49:43.500Z,34.88
2017-04-20T10:50:44.950Z,33.37
2017-04-20T10:51:46.374Z,33.57
2017-04-20T10:52:47.804Z,33.17
2017-04-20T10:53:49.235Z,34.60
2017-04-20T10:54:50.671Z,34.60
2017-04-20T10:55:52.108Z,34.50
2017-04-20T10:56:53.582Z,32.31
2017-04-20T10:57:55.016Z,32.81
2017-04-20T10:58:56.444Z,33.36
2017-04-20T10:59:57.911Z,30.42
2017-04-20T11:00:59.346Z,32.32
2017-04-20T11:02:00.782Z,33.76
2017-04-20T11:03:02.226Z,32.21
2017-04-20T11:04:03.658Z,33.28
2017-04-20T11:05:05.084Z,35.19
2017-04-20T11:06:06.518Z,34.81
2017-04-20T11:07:07.957Z,33.57
2017-04-20T11:08:09.390Z,31.28
2017-04-20T11:09:10.824Z,30.32
2017-04-20T11:10:12.253Z,29.74
2017-04-20T11:11:13.694Z,31.45
2017-04-20T11:12:15.129Z,33.95
2017-04-20T11:13:16.557Z,34.42
2017-04-20T11:14:17.990Z,33.85
2017-04-20T11:15:19.426Z,33.37
2017-04-20T11:16:20.861Z,31.18
2017-04-20T11:17:22.303Z,32.81
2017-04-20T11:18:23.808Z,31.56
2017-04-20T11:19:25.238Z,30.99
2017-04-20T11:20:26.670Z,30.53
2017-04-20T11:21:28.167Z,30.15
2017-04-20T11:22:29.599Z,30.05
2017-04-20T11:23:31.036Z,31.39
2017-04-20T11:24:32.467Z,29.88
2017-04-20T11:25:33.892Z,32.93
2017-04-20T11:26:35.328Z,31.40
2017-04-20T11:27:36.773Z,32.65
2017-04-20T11:28:38.201Z,32.07
2017-04-20T11:29:39.636Z,34.73
2017-04-20T11:30:41.066Z,32.65
2017-04-20T11:31:42.498Z,33.89
2017-04-20T11:32:43.931Z,33.60
2017-04-20T11:33:45.371Z,32.74
2017-04-20T11:34:46.800Z,32.93
2017-04-20T11:35:48.240Z,33.70
2017-04-20T11:36:49.680Z,32.06
2017-04-20T11:37:51.122Z,32.55
2017-04-20T11:38:52.559Z,32.92
2017-04-20T11:39:53.990Z,33.11
2017-04-20T11:40:55.431Z,31.20
2017-04-20T11:41:56.860Z,31.28
2017-04-20T11:42:58.288Z,31.56
2017-04-20T11:43:59.732Z,29.96
2017-04-20T11:45:01.173Z,30.15
2017-04-20T11:46:02.611Z,29.96
2017-04-20T11:47:04.050Z,29.97
2017-04-20T11:48:05.489Z,29.97
2017-04-20T11:49:06.913Z,30.26
2017-04-20T11:50:08.347Z,30.91
2017-04-20T11:51:09.785Z,30.24
2017-04-20T11:52:11.243Z,31.39
2017-04-20T11:53:12.673Z,31.29
2017-04-20T11:54:14.110Z,31.77
2017-04-20T11:55:15.544Z,29.30
2017-04-20T11:56:16.980Z,30.35
2017-04-20T11:57:18.423Z,28.99
2017-04-20T11:58:19.855Z,29.67
2017-04-20T11:59:21.287Z,29.86
2017-04-20T12:00:22.729Z,30.45
2017-04-20T12:01:24.162Z,30.18
2017-04-20T12:02:26.481Z,31.51
2017-04-20T12:03:27.918Z,30.45
2017-04-20T12:04:29.368Z,30.35
2017-04-20T12:05:30.799Z,30.74
2017-04-20T12:06:32.236Z,32.09
2017-04-20T12:07:33.663Z,31.61
2017-04-20T12:08:35.091Z,31.32
2017-04-20T12:09:36.550Z,30.85
2017-04-20T12:10:37.992Z,30.37
2017-04-20T12:11:39.414Z,30.45
2017-04-20T12:12:40.843Z,29.02
2017-04-20T12:13:42.278Z,29.11
2017-04-20T12:14:43.715Z,29.30
2017-04-20T12:15:45.148Z,29.30
2017-04-20T12:16:46.574Z,29.11
2017-04-20T12:17:48.007Z,28.35
2017-04-20T12:18:49.441Z,28.46
2017-04-20T12:19:50.875Z,27.39
2017-04-20T12:20:52.332Z,29.51
2017-04-20T12:21:53.698Z,29.22
2017-04-20T12:22:55.125Z,29.03
2017-04-20T12:23:56.557Z,28.25
2017-04-20T12:24:57.987Z,30.75
2017-04-20T12:25:59.418Z,28.92
2017-04-20T12:27:00.849Z,29.80
2017-04-20T12:28:02.281Z,27.20
2017-04-20T12:29:03.719Z,29.97
2017-04-20T12:30:05.144Z,29.03
2017-04-20T12:31:06.578Z,28.46
2017-04-20T12:32:08.003Z,29.30
2017-04-20T12:33:09.441Z,29.88
2017-04-20T12:34:10.876Z,28.54
2017-04-20T12:35:12.311Z,28.16
2017-04-20T12:36:13.742Z,29.19
2017-04-20T12:37:15.181Z,28.54
2017-04-20T12:38:16.613Z,28.54
2017-04-20T12:39:18.046Z,28.36
2017-04-20T12:40:19.497Z,28.36
2017-04-20T12:41:20.912Z,27.41
2017-04-20T12:42:22.342Z,28.46
2017-04-20T12:43:23.775Z,29.72
2017-04-20T12:44:25.202Z,27.71
2017-04-20T12:45:26.635Z,27.22
2017-04-20T12:46:28.070Z,27.60
2017-04-20T12:47:29.510Z,26.64
2017-04-20T12:48:30.940Z,27.52
2017-04-20T12:49:32.370Z,27.89
2017-04-20T12:50:33.812Z,28.65
2017-04-20T12:51:35.242Z,27.50
2017-04-20T12:52:36.685Z,27.42
2017-04-20T12:53:38.111Z,27.33
2017-04-20T12:54:39.557Z,25.12
2017-04-20T12:55:40.985Z,25.79
2017-04-20T12:56:42.420Z,26.07
2017-04-20T12:57:43.853Z,26.93
2017-04-20T12:58:45.287Z,25.98
2017-04-20T12:59:46.715Z,27.41
2017-04-20T13:00:48.307Z,27.04
2017-04-20T13:01:49.737Z,27.71
2017-04-20T13:02:51.170Z,27.61
2017-04-20T13:03:52.609Z,27.53
2017-04-20T13:04:54.039Z,27.82
2017-04-20T13:05:55.508Z,26.56
2017-04-20T13:06:56.940Z,27.42
2017-04-20T13:07:58.375Z,27.61
2017-04-20T13:08:59.814Z,27.44
2017-04-20T13:10:01.247Z,28.38
2017-04-20T13:11:02.680Z,29.73
2017-04-20T13:12:04.114Z,27.04
2017-04-20T13:13:05.511Z,27.42
2017-04-20T13:14:06.956Z,29.14
2017-04-20T13:15:08.403Z,29.70
2017-04-20T13:16:09.838Z,29.03
2017-04-20T13:17:11.305Z,28.95
2017-04-20T13:18:12.742Z,27.90
2017-04-20T13:19:14.260Z,27.61
2017-04-20T13:20:15.677Z,27.80
2017-04-20T13:21:17.107Z,28.57
2017-04-20T13:22:18.536Z,26.93
2017-04-20T13:23:19.972Z,25.70
2017-04-20T13:24:21.496Z,24.94
2017-04-20T13:25:22.921Z,26.09
2017-04-20T13:26:24.360Z,25.24
2017-04-20T13:27:25.811Z,25.52
2017-04-20T13:28:27.252Z,25.90
2017-04-20T13:29:28.682Z,25.43
2017-04-20T13:30:30.114Z,23.62
2017-04-20T13:31:31.548Z,22.87
2017-04-20T13:32:32.996Z,22.30
2017-04-20T13:33:34.382Z,22.68
2017-04-20T13:34:35.821Z,21.55
2017-04-20T13:35:37.263Z,19.46
2017-04-20T13:36:38.687Z,18.99
2017-04-20T13:37:40.136Z,18.80
2017-04-20T13:38:41.602Z,19.37
2017-04-20T13:39:43.030Z,21.36
2017-04-20T13:40:44.464Z,21.92
2017-04-20T13:41:45.917Z,21.28
2017-04-20T13:42:47.381Z,21.48
2017-04-20T13:43:48.833Z,20.12
2017-04-20T13:44:50.265Z,19.67
2017-04-20T13:45:51.720Z,21.07
2017-04-20T13:46:53.144Z,21.45
2017-04-20T13:47:54.594Z,23.06
2017-04-20T13:48:56.033Z,24.39
2017-04-20T13:49:57.477Z,23.91
2017-04-20T13:50:58.905Z,23.53
2017-04-20T13:52:00.338Z,24.57
2017-04-20T13:53:01.769Z,25.51
2017-04-20T13:54:03.205Z,26.37
2017-04-20T13:55:04.646Z,25.98
2017-04-20T13:56:06.086Z,27.79
2017-04-20T13:57:07.521Z,28.94
2017-04-20T13:58:08.957Z,29.80
2017-04-20T13:59:10.392Z,28.46
2017-04-20T14:00:11.822Z,28.17
2017-04-20T14:01:13.256Z,27.14
2017-04-20T14:02:14.694Z,27.12
2017-04-20T14:03:16.126Z,28.55
2017-04-20T14:04:17.517Z,27.52
2017-04-20T14:05:18.950Z,28.46
2017-04-20T14:06:20.384Z,27.31
2017-04-20T14:07:21.816Z,26.73
2017-04-20T14:08:23.247Z,26.55
2017-04-20T14:09:24.679Z,26.93
2017-04-20T14:10:26.119Z,26.63
2017-04-20T14:11:27.548Z,26.15
2017-04-20T14:12:28.983Z,27.11
2017-04-20T14:13:30.419Z,28.17
2017-04-20T14:14:31.858Z,28.36
2017-04-20T14:15:33.299Z,28.25
2017-04-20T14:16:34.737Z,28.27
2017-04-20T14:17:36.185Z,28.36
2017-04-20T14:18:37.614Z,28.64
2017-04-20T14:19:39.039Z,27.87
2017-04-20T14:20:40.480Z,29.21
2017-04-20T14:21:41.911Z,28.16
2017-04-20T14:22:43.346Z,28.92
2017-04-20T14:23:44.789Z,29.11
2017-04-20T14:24:46.225Z,29.02
2017-04-20T14:25:47.668Z,29.30
2017-04-20T14:26:49.114Z,28.35
2017-04-20T14:27:50.549Z,29.22
2017-04-20T14:28:51.986Z,29.32
2017-04-20T14:29:53.429Z,29.99
2017-04-20T14:30:54.854Z,30.37
2017-04-20T14:31:56.287Z,27.20
2017-04-20T14:32:57.714Z,27.11
2017-04-20T14:33:59.149Z,28.33
2017-04-20T14:35:00.580Z,28.24
2017-04-20T14:36:02.013Z,29.21
2017-04-20T14:37:03.449Z,27.39
2017-04-20T14:38:04.886Z,28.25
2017-04-20T14:39:06.317Z,25.96
2017-04-20T14:40:07.748Z,27.11
2017-04-20T14:41:09.181Z,27.20
2017-04-20T14:42:10.612Z,27.39
2017-04-20T14:43:12.040Z,28.44
2017-04-20T14:44:13.486Z,27.87
2017-04-20T14:45:15.580Z,27.67
2017-04-20T14:46:17.017Z,29.29
2017-04-20T14:47:18.457Z,29.00
2017-04-20T14:48:19.900Z,29.38
2017-04-20T14:49:21.331Z,29.10
2017-04-20T14:50:22.771Z,28.92
2017-04-20T14:51:24.225Z,28.44
2017-04-20T14:52:25.661Z,29.40
2017-04-20T14:53:27.099Z,29.11
2017-04-20T14:54:28.523Z,29.02
2017-04-20T14:55:30.019Z,32.26
2017-04-20T14:56:32.440Z,29.49
2017-04-20T14:57:33.881Z,28.05
2017-04-20T14:58:35.314Z,29.67
2017-04-20T14:59:37.625Z,30.43
2017-04-20T15:00:39.062Z,31.96
2017-04-20T15:01:40.489Z,30.15
2017-04-20T15:02:41.993Z,29.00
2017-04-20T15:03:43.415Z,28.24
2017-04-20T15:04:44.855Z,28.35
2017-04-20T15:05:46.289Z,28.06
2017-04-20T15:06:47.734Z,28.73
2017-04-20T15:07:49.166Z,28.25
2017-04-20T15:08:50.598Z,29.40
2017-04-20T15:09:52.038Z,29.29
2017-04-20T15:10:53.601Z,27.39
2017-04-20T15:11:55.037Z,27.57
2017-04-20T15:12:56.467Z,28.14
2017-04-20T15:13:57.935Z,28.43
2017-04-20T15:14:59.366Z,29.59
2017-04-20T15:16:00.754Z,30.26
2017-04-20T15:17:02.283Z,31.69
2017-04-20T15:18:03.719Z,31.96
2017-04-20T15:19:05.156Z,30.83
2017-04-20T15:20:06.597Z,32.07
2017-04-20T15:21:08.035Z,30.35
2017-04-20T15:22:09.459Z,30.55
2017-04-20T15:23:10.898Z,32.17
2017-04-20T15:24:12.329Z,31.02
2017-04-20T15:25:13.793Z,28.54
2017-04-20T15:26:15.225Z,29.59
2017-04-20T15:27:16.660Z,30.26
2017-04-20T15:28:18.147Z,29.30
2017-04-20T15:29:19.581Z,32.17
2017-04-20T15:30:21.014Z,31.98
2017-04-20T15:31:22.447Z,29.21
2017-04-20T15:32:23.884Z,29.02
2017-04-20T15:33:25.313Z,30.35
2017-04-20T15:34:26.751Z,30.93
2017-04-20T15:35:28.183Z,29.30
2017-04-20T15:36:29.620Z,29.49
2017-04-20T15:37:31.048Z,29.48
2017-04-20T15:38:32.481Z,31.01
2017-04-20T15:39:33.906Z,32.65
2017-04-20T15:40:35.344Z,31.98
2017-04-20T15:41:36.773Z,32.63
2017-04-20T15:42:38.208Z,31.02
2017-04-20T15:43:39.647Z,31.21
2017-04-20T15:44:41.076Z,31.12
2017-04-20T15:45:42.509Z,30.26
2017-04-20T15:46:43.904Z,29.70
2017-04-20T15:47:45.349Z,29.62
2017-04-20T15:48:46.782Z,27.42
2017-04-20T15:49:48.220Z,28.54
2017-04-20T15:50:49.659Z,29.59
2017-04-20T15:51:51.102Z,29.69
2017-04-20T15:52:52.536Z,31.02
2017-04-20T15:53:53.973Z,32.82
2017-04-20T15:54:55.413Z,32.06
2017-04-20T15:55:56.844Z,30.91
2017-04-20T15:56:58.278Z,30.24
2017-04-20T15:57:59.709Z,31.10
2017-04-20T15:59:01.152Z,30.43
2017-04-20T16:00:02.575Z,30.34
2017-04-20T16:01:04.016Z,31.87
2017-04-20T16:02:05.446Z,30.16
2017-04-20T16:03:06.881Z,31.88
2017-04-20T16:04:08.313Z,31.02
2017-04-20T16:05:09.744Z,29.21
2017-04-20T16:06:11.197Z,29.40
2017-04-20T16:07:12.632Z,30.45
2017-04-20T16:08:14.066Z,28.92
2017-04-20T16:09:15.485Z,29.02
2017-04-20T16:10:16.920Z,29.21
2017-04-20T16:11:18.363Z,29.97
2017-04-20T16:12:19.796Z,29.21
2017-04-20T16:13:21.228Z,28.06
2017-04-20T16:14:22.667Z,29.02
2017-04-20T16:15:24.095Z,28.35
2017-04-20T16:16:25.484Z,27.39
2017-04-20T16:17:26.917Z,27.79
2017-04-20T16:18:28.346Z,28.44
2017-04-20T16:19:29.779Z,27.68
2017-04-20T16:20:31.215Z,29.02
2017-04-20T16:21:32.659Z,29.40
2017-04-20T16:22:34.089Z,30.26